EDVK 201750Z 06002KT 9999 OVC048 11/05 Q1023 EDVK 201720Z 06004KT 9999 OVC049 12/05 Q1023 EDVK 201650Z 08005KT 9999 OVC048 12/04 Q1023 EDVK 201620Z 07006KT 9999 OVC048 12/04 Q1022 EDVK 201550Z 06007KT 9999 OVC047 13/04 Q1022 EDVK 201520Z 05005KT 9999 FEW040 OVC047 13/04 Q1022 EDVK 201450Z 05006KT 9999 FEW040 OVC047 13/04 Q1022 EDVK 201420Z 10005KT 9999 FEW037 OVC048 13/04 Q1022 EDVK 201350Z 07006KT 9999 FEW037 OVC048 13/05 Q1022 EDVK 201320Z 09006KT 040V120 9999 FEW036 OVC044 13/05 Q1021 EDVK 201250Z 10006KT 050V120 9999 SCT035 OVC048 13/05 Q1021 EDVK 201220Z 09007KT 050V130 9999 SCT035 OVC048 13/05 Q1021 EDVK 201150Z 09007KT 9999 FEW036 OVC046 13/05 Q1021 EDVK 201120Z 09009KT 9999 OVC047 13/05 Q1021 EDVK 201050Z 08010KT 9999 OVC046 13/05 Q1021 EDVK 201020Z 07008KT 9999 FEW026 BKN047 13/05 Q1021 EDVK 200950Z 08011KT 9999 FEW026 BKN047 13/06 Q1021 EDVK 200920Z 09011KT 9999 FEW042 OVC047 12/06 Q1021 EDVK 200850Z 08010KT 9999 OVC046 12/06 Q1021 EDVK 200820Z 09004KT 050V130 9999 OVC046 12/07 Q1020 EDVK 200750Z VRB02KT 9999 OVC046 11/08 Q1020 EDVK 200720Z VRB01KT 9999 OVC046 09/08 Q1020 EDVK 200650Z VRB02KT 9999 OVC046 08/07 Q1020 EDVK 200620Z 34002KT 9999 OVC045 08/07 Q1020 EDVK 200550Z VRB01KT 9999 OVC045 08/07 Q1020 EDVK 200520Z VRB01KT 9999 OVC043 07/06 Q1020 EDVK 200320Z VRB02KT 9999 BKN044 06/05 Q1019 EDVK 200250Z 25003KT 9999 SCT043 06/05 Q1019 EDVK 200220Z 25003KT 210V280 9999 SCT043 06/05 Q1019 EDVK 191950Z 10005KT 9999 OVC034 11/06 Q1018 EDVK 191920Z 09004KT 9999 OVC032 11/07 Q1018 EDVK 191850Z 08004KT 9999 OVC033 11/07 Q1018 EDVK 191820Z 10005KT 9999 OVC032 11/06 Q1018 EDVK 191750Z 09004KT 9999 OVC031 11/07 Q1018 EDVK 191720Z 09005KT 9999 OVC032 12/06 Q1017 EDVK 191650Z 08006KT 9999 OVC030 12/06 Q1017 EDVK 191620Z 08008KT 9999 OVC031 12/05 Q1017 EDVK 191550Z 09008KT 9999 OVC028 12/06 Q1017 EDVK 191520Z 06008KT 9999 OVC028 12/06 Q1017 EDVK 191450Z 08009KT 9999 BKN029 12/06 Q1017

METAR Messwerte

Zurück zur Übersicht

Ort
m ü. NN
Zeit Temperatur Taupunkt Rel.
Luftfeuchte
Luftdruck:
Altimeter
NN
Station
Wind in Beaufort
(Knoten)
Sichtweite
(Meter)
Wolken
(Meter über Grund)
Wettererscheinung
Kassel/Calden
285
Mo 20.09. 19:5011566 %1023
1024
989
ONO 1 (2)>= 10000Bedeckt (1500) 
Kassel/Calden
285
Mo 20.09. 19:2012562 %1023
1023
989
ONO 2 (4)>= 10000Bedeckt (1500) 
Kassel/Calden
285
Mo 20.09. 18:5012458 %1023
1023
989
O 2 (5)>= 10000Bedeckt (1500) 
Kassel/Calden
285
Mo 20.09. 18:2012458 %1022
1022
988
ONO 2 (6)>= 10000Bedeckt (1500) 
Kassel/Calden
285
Mo 20.09. 17:5013454 %1022
1022
988
ONO 3 (7)>= 10000Bedeckt (1400) 
Kassel/Calden
285
Mo 20.09. 17:2013454 %1022
1022
988
NO 2 (5)>= 10000Bedeckt (1400)
Leicht bewölkt (1200)
 
Kassel/Calden
285
Mo 20.09. 16:5013454 %1022
1022
988
NO 2 (6)>= 10000Bedeckt (1400)
Leicht bewölkt (1200)
 
Kassel/Calden
285
Mo 20.09. 16:2013454 %1022
1022
988
O 2 (5)>= 10000Bedeckt (1500)
Leicht bewölkt (1100)
 
Kassel/Calden
285
Mo 20.09. 15:5013558 %1022
1022
988
ONO 2 (6)>= 10000Bedeckt (1500)
Leicht bewölkt (1100)
 
Kassel/Calden
285
Mo 20.09. 15:2013558 %1021
1021
987
O 2 (6)
NO - OSO
>= 10000Bedeckt (1300)
Leicht bewölkt (1100)
 
Kassel/Calden
285
Mo 20.09. 14:5013558 %1021
1021
987
O 2 (6)
NO - OSO
>= 10000Bedeckt (1500)
Wolkig (1100)
 
Kassel/Calden
285
Mo 20.09. 14:2013558 %1021
1021
987
O 3 (7)
NO - SO
>= 10000Bedeckt (1500)
Wolkig (1100)
 
Kassel/Calden
285
Mo 20.09. 13:5013558 %1021
1021
987
O 3 (7)>= 10000Bedeckt (1400)
Leicht bewölkt (1100)
 
Kassel/Calden
285
Mo 20.09. 13:2013558 %1021
1021
987
O 3 (9)>= 10000Bedeckt (1400) 
Kassel/Calden
285
Mo 20.09. 12:5013558 %1021
1021
987
O 3 (10)>= 10000Bedeckt (1400) 
Kassel/Calden
285
Mo 20.09. 12:2013558 %1021
1021
987
ONO 3 (8)>= 10000Stark bewölkt (1400)
Leicht bewölkt (790)
 
Kassel/Calden
285
Mo 20.09. 11:5013662 %1021
1021
987
O 4 (11)>= 10000Stark bewölkt (1400)
Leicht bewölkt (790)
 
Kassel/Calden
285
Mo 20.09. 11:2012667 %1021
1021
987
O 4 (11)>= 10000Bedeckt (1400)
Leicht bewölkt (1300)
 
Kassel/Calden
285
Mo 20.09. 10:5012667 %1021
1021
987
O 3 (10)>= 10000Bedeckt (1400) 
Kassel/Calden
285
Mo 20.09. 10:2012771 %1020
1020
986
O 2 (4)
NO - SO
>= 10000Bedeckt (1400) 
Kassel/Calden
285
Mo 20.09. 09:5011882 %1020
1021
986
Uml 1 (2)>= 10000Bedeckt (1400) 
Kassel/Calden
285
Mo 20.09. 09:209893 %1020
1021
986
Uml 1 (1)>= 10000Bedeckt (1400) 
Kassel/Calden
285
Mo 20.09. 08:508793 %1020
1021
986
Uml 1 (2)>= 10000Bedeckt (1400) 
Kassel/Calden
285
Mo 20.09. 08:208793 %1020
1021
986
NNW 1 (2)>= 10000Bedeckt (1400) 
Kassel/Calden
285
Mo 20.09. 07:508793 %1020
1021
986
Uml 1 (1)>= 10000Bedeckt (1400) 
Kassel/Calden
285
Mo 20.09. 07:207693 %1020
1021
986
Uml 1 (1)>= 10000Bedeckt (1300) 
Kassel/Calden
285
Mo 20.09. 05:206593 %1019
1020
985
Uml 1 (2)>= 10000Stark bewölkt (1300) 
Kassel/Calden
285
Mo 20.09. 04:506593 %1019
1020
985
WSW 2 (3)>= 10000Wolkig (1300) 
Kassel/Calden
285
Mo 20.09. 04:206593 %1019
1020
985
WSW 2 (3)
SSW - W
>= 10000Wolkig (1300) 
Kassel/Calden
285
So 19.09. 21:5011671 %1018
1019
984
O 2 (5)>= 10000Bedeckt (1000) 
Kassel/Calden
285
So 19.09. 21:2011776 %1018
1019
984
O 2 (4)>= 10000Bedeckt (980) 
Kassel/Calden
285
So 19.09. 20:5011776 %1018
1019
984
O 2 (4)>= 10000Bedeckt (1000) 
Kassel/Calden
285
So 19.09. 20:2011671 %1018
1019
984
O 2 (5)>= 10000Bedeckt (980) 
Kassel/Calden
285
So 19.09. 19:5011776 %1018
1019
984
O 2 (4)>= 10000Bedeckt (940) 
Kassel/Calden
285
So 19.09. 19:2012667 %1017
1017
983
O 2 (5)>= 10000Bedeckt (980) 
Kassel/Calden
285
So 19.09. 18:5012667 %1017
1017
983
O 2 (6)>= 10000Bedeckt (910) 
Kassel/Calden
285
So 19.09. 18:2012562 %1017
1017
983
O 3 (8)>= 10000Bedeckt (940) 
Kassel/Calden
285
So 19.09. 17:5012667 %1017
1017
983
O 3 (8)>= 10000Bedeckt (850) 
Kassel/Calden
285
So 19.09. 17:2012667 %1017
1017
983
ONO 3 (8)>= 10000Bedeckt (850) 
Kassel/Calden
285
So 19.09. 16:5012667 %1017
1017
983
O 3 (9)>= 10000Stark bewölkt (880) 

Altimeter: Einstellung am Altimeter (Höhenmesser), die Höhe 0 muss auf diesen Luftdruckwert zeigen, damit das Gerät die Stationshöhe richtig anzeigt.

NN: Luftdruck reduziert auf "Normal Null", auf Meereshöhe, dieser von der Temperatur abhängige Wert wird bisweilen unkorrekt einfach als "Luftdruck" bezeichnet. Eigentlich nur eine fiktive Größe, die es erlaubt, Stationen auf unterschiedlichen Höhen miteinander zu vergleichen.

Station: Realer Luftdruck an der Station.